Terminal Aerodrome Forecast
Issued by NWS

Home | Current Version | Previous Version | Text Only | Print | Product List | Glossary On
Versions: 1 2 3 4 5 6 7 8 9 10 11 12 13 14
000
FTUS41 KBTV 061131
TAFMPV
TAF
KMPV 061131Z 0612/0712 00000KT P6SM SKC
     FM061900 23006KT P6SM SKC
     FM070500 00000KT P6SM SCT080 BKN140=

USA.gov is the U.S. government's official web portal to all federal, state and local government web resources and services.